createdAt,value
2022-09-28T00:09:05.178Z,3.00
2022-09-28T00:12:43.195Z,2.22
2022-09-28T00:36:04.358Z,0.70
2022-09-28T00:39:16.153Z,1.42
2022-09-28T00:42:40.489Z,1.27
2022-09-28T02:09:33.723Z,1.23
2022-09-28T02:13:30.830Z,1.35
2022-09-28T02:20:53.023Z,2.20
2022-09-28T02:32:43.244Z,2.40
2022-09-28T02:39:46.598Z,2.42
2022-09-28T02:50:31.463Z,2.28
2022-09-28T03:03:51.224Z,2.40
2022-09-28T03:07:42.591Z,2.67
2022-09-28T03:11:35.716Z,3.40
2022-09-28T03:14:28.321Z,2.55
2022-09-28T03:21:22.677Z,3.40
2022-09-28T03:28:41.485Z,2.20
2022-09-28T03:31:50.194Z,2.30
2022-09-28T03:34:59.132Z,2.08
2022-09-28T03:37:43.497Z,2.30
2022-09-28T03:40:39.840Z,2.03
2022-09-28T03:47:53.117Z,1.80
2022-09-28T03:50:47.921Z,1.67
2022-09-28T03:54:37.464Z,1.75
2022-09-28T03:59:02.189Z,1.75
2022-09-28T04:13:37.742Z,1.60
2022-09-28T04:16:40.713Z,1.60
2022-09-28T04:20:13.158Z,1.40
2022-09-28T05:23:17.782Z,2.47
2022-09-28T05:26:25.888Z,2.20
2022-09-28T05:29:57.708Z,1.63
2022-09-28T05:33:54.982Z,2.03
2022-09-28T05:44:59.741Z,2.15
2022-09-28T05:48:01.712Z,2.00
2022-09-28T05:55:27.642Z,1.98
2022-09-28T05:58:38.357Z,1.83
2022-09-28T06:24:54.501Z,3.50
2022-09-28T09:20:11.280Z,1.95
2022-09-28T09:42:10.134Z,2.00
2022-09-28T09:50:40.337Z,1.60
2022-09-28T11:07:17.394Z,2.00
2022-09-28T11:10:56.565Z,1.90
2022-09-28T11:20:45.579Z,1.58
2022-09-28T11:23:11.956Z,2.10
2022-09-28T11:27:02.665Z,2.17
2022-09-28T12:11:43.574Z,1.13
2022-09-28T12:20:24.339Z,0.85
2022-09-28T12:24:35.648Z,0.80
2022-09-28T12:28:47.310Z,0.70
2022-09-28T12:40:32.313Z,0.98
2022-09-28T12:47:44.893Z,1.30
2022-09-28T12:51:31.908Z,1.10
2022-09-28T13:04:41.732Z,0.60
2022-09-28T13:22:11.305Z,1.63
2022-09-28T13:49:37.541Z,0.60
2022-09-28T13:59:12.152Z,0.70
2022-09-28T14:12:33.093Z,1.30
2022-09-28T14:15:01.263Z,0.80
2022-09-28T14:17:28.316Z,0.80
2022-09-28T14:20:17.670Z,1.08
2022-09-28T14:23:18.847Z,0.82
2022-09-28T14:26:20.742Z,0.75
2022-09-28T14:29:10.766Z,1.08
2022-09-28T14:32:09.601Z,0.73
2022-09-28T14:34:55.006Z,0.90
2022-09-28T14:37:52.292Z,1.13
2022-09-28T14:41:12.562Z,1.00
2022-09-28T14:43:46.133Z,0.77
2022-09-28T14:46:19.732Z,0.63
2022-09-28T14:49:10.191Z,0.50
2022-09-28T14:52:02.839Z,0.70
2022-09-28T14:54:52.497Z,0.63
2022-09-28T14:57:25.271Z,0.50
2022-09-28T14:59:52.420Z,0.50
2022-09-28T15:02:32.266Z,0.50
2022-09-28T15:05:18.701Z,0.40
2022-09-28T15:07:52.264Z,0.70
2022-09-28T15:10:36.699Z,0.45
2022-09-28T15:13:32.446Z,0.65
2022-09-28T15:16:10.087Z,0.55
2022-09-28T15:19:51.709Z,0.80
2022-09-28T15:32:04.920Z,1.00
2022-09-28T15:34:52.812Z,1.30
2022-09-28T15:49:39.076Z,1.13
2022-09-28T15:52:08.241Z,1.33
2022-09-28T15:54:44.372Z,1.52
2022-09-28T15:57:36.853Z,1.50
2022-09-28T16:00:28.271Z,1.52
2022-09-28T16:17:07.267Z,1.67
2022-09-28T16:19:46.997Z,1.30
2022-09-28T16:23:06.069Z,1.63
2022-09-28T16:25:37.502Z,1.60
2022-09-28T16:28:06.395Z,1.60
2022-09-28T16:30:35.468Z,1.90
2022-09-28T16:33:31.024Z,1.90
2022-09-28T16:49:19.029Z,2.05
2022-09-28T17:02:04.551Z,2.35
2022-09-28T17:04:36.253Z,2.55
2022-09-28T17:07:03.510Z,2.80
2022-09-28T17:09:31.675Z,3.13
2022-09-28T17:11:58.780Z,2.60
2022-09-28T17:14:26.048Z,2.45
2022-09-28T17:17:08.194Z,2.80
2022-09-28T18:09:25.225Z,4.20
2022-09-28T18:43:10.774Z,4.32
2022-09-28T18:51:29.673Z,5.32
2022-09-28T19:01:28.964Z,4.65
2022-09-28T19:04:01.870Z,4.55
2022-09-28T19:06:32.961Z,5.18
2022-09-28T19:17:10.573Z,4.65
2022-09-28T20:16:51.865Z,5.32
2022-09-28T20:20:10.295Z,4.82
2022-09-28T20:22:38.261Z,4.90
2022-09-28T20:25:06.309Z,4.05
2022-09-28T20:27:33.417Z,4.32
2022-09-28T20:30:00.657Z,4.30
2022-09-28T20:32:31.646Z,4.45
2022-09-28T20:34:58.765Z,5.15
2022-09-28T20:49:20.040Z,4.65
2022-09-28T20:51:47.564Z,4.60
2022-09-28T20:54:24.795Z,4.32
2022-09-28T20:57:17.422Z,4.13
2022-09-28T21:00:04.606Z,5.10
2022-09-28T21:03:11.491Z,4.38
2022-09-28T21:05:41.283Z,4.90
2022-09-28T21:17:58.442Z,4.70
2022-09-28T21:20:30.836Z,4.95
2022-09-28T21:22:57.890Z,4.15
2022-09-28T21:25:24.914Z,4.30
2022-09-28T21:27:52.994Z,3.90
2022-09-28T21:30:20.138Z,4.55
2022-09-28T21:32:47.152Z,3.92
2022-09-28T21:35:14.340Z,4.07
2022-09-28T21:37:41.442Z,4.82
2022-09-28T21:40:10.609Z,4.30
2022-09-28T21:42:37.726Z,4.10
2022-09-28T21:45:05.459Z,4.38
2022-09-28T21:47:32.453Z,4.32
2022-09-28T21:49:59.400Z,3.67
2022-09-28T21:52:26.714Z,4.07
2022-09-28T21:54:53.765Z,4.28
2022-09-28T21:57:20.936Z,3.65
2022-09-28T21:59:51.033Z,4.70
2022-09-28T22:02:18.818Z,4.00
2022-09-28T22:04:46.060Z,4.05
2022-09-28T22:07:15.023Z,4.03
2022-09-28T22:09:42.173Z,4.10
2022-09-28T22:12:09.552Z,4.18
2022-09-28T22:14:36.586Z,4.13
2022-09-28T22:17:03.699Z,4.38
2022-09-28T22:19:30.811Z,4.80
2022-09-28T22:36:18.584Z,5.60
2022-09-28T22:49:55.578Z,6.25
2022-09-28T22:52:23.154Z,6.10
2022-09-28T22:54:53.912Z,6.55
2022-09-28T22:57:21.797Z,6.65
2022-09-28T22:59:48.977Z,5.97
2022-09-28T23:02:16.095Z,6.40
2022-09-28T23:04:43.139Z,6.18
2022-09-28T23:07:10.552Z,6.38
2022-09-28T23:09:37.661Z,7.10
2022-09-28T23:12:04.748Z,6.55
2022-09-28T23:14:38.861Z,6.15
2022-09-28T23:18:03.458Z,6.90
2022-09-28T23:26:21.043Z,6.55
2022-09-28T23:34:43.852Z,6.45
2022-09-28T23:37:11.371Z,5.97
2022-09-28T23:39:38.419Z,5.50
2022-09-28T23:42:05.692Z,6.05
2022-09-28T23:44:57.631Z,5.47
2022-09-28T23:47:50.140Z,5.53
2022-09-28T23:50:17.554Z,5.82
2022-09-28T23:52:47.676Z,5.65
2022-09-28T23:55:14.807Z,5.43
2022-09-28T23:57:44.092Z,6.05
